Time;durP1;ratioP1;P1;durP2;ratioP2;P2;SDS_P1;SDS_P2;PMS_P1;PMS_P2;Temp;Humidity;BMP_temperature;BMP_pressure;BME280_temperature;BME280_humidity;BME280_pressure;Samples;Min_cycle;Max_cycle;Signal;HPM_P1;HPM_P2
2022/12/24 00:01:59;;;;;;;8.98;2.08;;;;;;;;;;5010396;28;20061;-63
2022/12/24 00:04:29;;;;;;;5.28;1.35;;;;;;;;;;4990528;28;20498;-62
2022/12/24 00:06:59;;;;;;;4.35;1.58;;;;;;;;;;4973986;28;20081;-62
2022/12/24 00:09:28;;;;;;;5.68;1.42;;;;;;;;;;4991333;28;20073;-63
2022/12/24 00:11:58;;;;;;;11.73;1.98;;;;;;;;;;5010161;28;20065;-62
2022/12/24 00:14:28;;;;;;;4.25;1.60;;;;;;;;;;5010191;28;20465;-62
2022/12/24 00:16:58;;;;;;;3.00;1.42;;;;;;;;;;5010406;28;20199;-62
2022/12/24 00:19:27;;;;;;;7.70;1.80;;;;;;;;;;5010200;28;20083;-62
2022/12/24 00:21:57;;;;;;;4.53;1.38;;;;;;;;;;5010263;28;20494;-62
2022/12/24 00:24:27;;;;;;;6.43;1.58;;;;;;;;;;4993362;28;20054;-62
2022/12/24 00:26:57;;;;;;;5.20;1.50;;;;;;;;;;4961504;28;20502;-62
2022/12/24 00:29:26;;;;;;;5.70;1.42;;;;;;;;;;5009693;28;20045;-62
2022/12/24 00:31:56;;;;;;;8.77;1.75;;;;;;;;;;5036002;28;20455;-62
2022/12/24 00:34:26;;;;;;;4.68;1.88;;;;;;;;;;5069570;28;20080;-62
2022/12/24 00:36:55;;;;;;;8.38;1.88;;;;;;;;;;5020038;28;20415;-62
2022/12/24 00:39:25;;;;;;;8.85;1.90;;;;;;;;;;5069625;28;20040;-63
2022/12/24 00:41:55;;;;;;;7.03;2.03;;;;;;;;;;5055976;28;20749;-62
2022/12/24 00:44:24;;;;;;;9.35;2.13;;;;;;;;;;5039722;28;20631;-64
2022/12/24 00:46:54;;;;;;;7.43;2.22;;;;;;;;;;5073129;28;20051;-62
2022/12/24 00:49:24;;;;;;;7.85;1.90;;;;;;;;;;5089577;28;20057;-62
2022/12/24 00:51:53;;;;;;;9.60;2.85;;;;;;;;;;5089711;28;20059;-62
2022/12/24 00:54:23;;;;;;;8.18;1.83;;;;;;;;;;5039418;28;20048;-63
2022/12/24 00:56:53;;;;;;;6.45;1.90;;;;;;;;;;5093933;28;20040;-63
2022/12/24 00:59:23;;;;;;;6.13;2.13;;;;;;;;;;5093461;28;20048;-62
2022/12/24 01:01:52;;;;;;;5.00;2.05;;;;;;;;;;5076950;28;20052;-62
2022/12/24 01:07:10;;;;;;;5.57;2.08;;;;;;;;;;5080254;28;20054;-63
2022/12/24 01:09:40;;;;;;;8.13;2.42;;;;;;;;;;5095600;28;20044;-63
2022/12/24 01:12:10;;;;;;;5.28;1.48;;;;;;;;;;5095577;28;20044;-63
2022/12/24 01:14:41;;;;;;;5.45;1.70;;;;;;;;;;5059921;28;20059;-63
2022/12/24 01:17:11;;;;;;;5.60;1.67;;;;;;;;;;5095796;28;20047;-63
2022/12/24 01:19:41;;;;;;;7.07;1.48;;;;;;;;;;5076806;28;20063;-63
2022/12/24 01:22:11;;;;;;;8.98;2.67;;;;;;;;;;5043120;28;20044;-63
2022/12/24 01:24:41;;;;;;;18.63;6.53;;;;;;;;;;5076428;28;20060;-63
2022/12/24 01:27:11;;;;;;;23.35;7.15;;;;;;;;;;5095619;28;20052;-63
2022/12/24 01:29:41;;;;;;;20.08;6.68;;;;;;;;;;5093073;28;20059;-63
2022/12/24 01:32:10;;;;;;;21.60;7.18;;;;;;;;;;5093248;28;20044;-63
2022/12/24 01:34:40;;;;;;;15.73;5.53;;;;;;;;;;5076126;28;20058;-63
2022/12/24 01:37:10;;;;;;;14.75;4.80;;;;;;;;;;5076583;28;20094;-63
2022/12/24 01:39:40;;;;;;;14.50;3.88;;;;;;;;;;5076145;28;20117;-62
2022/12/24 01:45:36;;;;;;;14.30;3.45;;;;;;;;;;5079184;28;20056;-62
2022/12/24 01:48:35;;;;;;;7.18;2.85;;;;;;;;;;5076053;28;20527;-63
2022/12/24 01:51:23;;;;;;;14.13;3.03;;;;;;;;;;5094960;28;20059;-62
2022/12/24 01:54:02;;;;;;;15.60;4.25;;;;;;;;;;5095211;28;20044;-62
2022/12/24 01:56:34;;;;;;;14.55;4.20;;;;;;;;;;5094964;28;20513;-62
2022/12/24 01:59:09;;;;;;;12.85;4.43;;;;;;;;;;5071996;28;20400;-63
2022/12/24 02:01:40;;;;;;;10.25;3.67;;;;;;;;;;5023576;28;20067;-63
2022/12/24 02:04:27;;;;;;;9.90;2.83;;;;;;;;;;5055406;28;20060;-63
2022/12/24 02:06:57;;;;;;;10.57;3.15;;;;;;;;;;5054558;28;20427;-63
2022/12/24 02:09:27;;;;;;;11.30;2.97;;;;;;;;;;5015330;28;20053;-63
2022/12/24 02:11:58;;;;;;;6.90;2.38;;;;;;;;;;5000004;28;20058;-63
2022/12/24 02:14:31;;;;;;;9.32;2.60;;;;;;;;;;5012001;28;20446;-63
2022/12/24 02:17:18;;;;;;;9.80;3.10;;;;;;;;;;5012160;28;20441;-63
2022/12/24 02:19:54;;;;;;;12.45;4.28;;;;;;;;;;5012078;28;20062;-63
2022/12/24 02:22:56;;;;;;;15.85;5.30;;;;;;;;;;4979207;28;20058;-62
2022/12/24 02:25:53;;;;;;;16.80;5.75;;;;;;;;;;5011868;28;20175;-63
2022/12/24 02:28:48;;;;;;;12.70;4.10;;;;;;;;;;5010922;28;20045;-63
2022/12/24 02:31:35;;;;;;;12.23;3.53;;;;;;;;;;4953647;29;20546;-63
2022/12/24 02:34:34;;;;;;;9.02;2.90;;;;;;;;;;4891640;29;20055;-64
2022/12/24 02:37:17;;;;;;;12.00;3.30;;;;;;;;;;4908432;29;20664;-63
2022/12/24 02:39:58;;;;;;;7.70;2.97;;;;;;;;;;4915498;29;20536;-63
2022/12/24 02:42:38;;;;;;;8.07;3.83;;;;;;;;;;4883786;29;20090;-63
2022/12/24 02:45:12;;;;;;;11.57;3.05;;;;;;;;;;4915443;29;20067;-63
2022/12/24 02:47:44;;;;;;;9.63;2.45;;;;;;;;;;4929656;29;20063;-63
2022/12/24 02:50:16;;;;;;;7.75;2.75;;;;;;;;;;4934087;29;20400;-63
2022/12/24 02:52:47;;;;;;;11.35;3.75;;;;;;;;;;4948797;29;20059;-63
2022/12/24 02:55:20;;;;;;;11.75;3.95;;;;;;;;;;4953256;29;20055;-63
2022/12/24 02:58:02;;;;;;;15.40;4.22;;;;;;;;;;4953257;28;20055;-63
2022/12/24 03:00:51;;;;;;;12.18;4.22;;;;;;;;;;4952898;29;20059;-63
2022/12/24 03:03:27;;;;;;;13.80;4.30;;;;;;;;;;4937598;29;20093;-63
2022/12/24 03:06:15;;;;;;;13.48;3.88;;;;;;;;;;4921089;29;20055;-63
2022/12/24 03:09:01;;;;;;;11.23;3.88;;;;;;;;;;4989097;28;20100;-63
2022/12/24 03:11:32;;;;;;;10.32;3.72;;;;;;;;;;5011180;28;20161;-63
2022/12/24 03:14:03;;;;;;;11.55;3.80;;;;;;;;;;5051635;28;20057;-63
2022/12/24 03:16:33;;;;;;;8.20;3.30;;;;;;;;;;5070904;28;20059;-63
2022/12/24 03:19:04;;;;;;;9.32;3.35;;;;;;;;;;5069873;28;20056;-62
2022/12/24 03:21:38;;;;;;;9.55;3.20;;;;;;;;;;5050529;28;20060;-63
2022/12/24 03:24:09;;;;;;;12.80;3.42;;;;;;;;;;5050442;28;20065;-62
2022/12/24 03:26:40;;;;;;;10.80;3.05;;;;;;;;;;5050276;28;20059;-63
2022/12/24 03:29:10;;;;;;;9.98;3.47;;;;;;;;;;5050381;28;20056;-62
2022/12/24 03:31:51;;;;;;;10.00;2.92;;;;;;;;;;5050514;28;20049;-62
2022/12/24 03:34:21;;;;;;;7.47;2.88;;;;;;;;;;5017145;28;20509;-62
2022/12/24 03:36:51;;;;;;;10.13;3.30;;;;;;;;;;5050690;28;20049;-62
2022/12/24 03:39:21;;;;;;;9.43;3.13;;;;;;;;;;5069721;28;20575;-62
2022/12/24 03:41:52;;;;;;;8.50;2.97;;;;;;;;;;5070352;28;20075;-63
2022/12/24 03:44:22;;;;;;;6.85;3.50;;;;;;;;;;5070385;28;20088;-63
2022/12/24 03:46:51;;;;;;;6.75;2.67;;;;;;;;;;5070318;28;20056;-62
2022/12/24 03:49:21;;;;;;;8.32;2.80;;;;;;;;;;5049997;28;20056;-62
2022/12/24 03:51:51;;;;;;;10.75;3.03;;;;;;;;;;5017134;28;20080;-63
2022/12/24 03:54:22;;;;;;;8.45;3.03;;;;;;;;;;5049868;28;20052;-62
2022/12/24 03:56:52;;;;;;;6.88;2.80;;;;;;;;;;5050013;28;20045;-62
2022/12/24 03:59:22;;;;;;;7.38;3.30;;;;;;;;;;5062106;28;20531;-62
2022/12/24 04:01:51;;;;;;;9.30;2.70;;;;;;;;;;5070079;28;20061;-62
2022/12/24 04:04:21;;;;;;;9.18;2.58;;;;;;;;;;5069844;28;20052;-62
2022/12/24 04:06:51;;;;;;;14.70;2.83;;;;;;;;;;5069700;28;20536;-62
2022/12/24 04:09:21;;;;;;;6.38;2.40;;;;;;;;;;5053053;28;20493;-64
2022/12/24 04:11:50;;;;;;;8.13;2.83;;;;;;;;;;5069882;28;20531;-62
2022/12/24 04:14:20;;;;;;;6.30;2.60;;;;;;;;;;5069869;28;20516;-64
2022/12/24 04:16:49;;;;;;;9.38;2.80;;;;;;;;;;5036529;28;20083;-62
2022/12/24 04:19:19;;;;;;;9.07;2.58;;;;;;;;;;5069676;28;20541;-62
2022/12/24 04:21:49;;;;;;;12.15;3.08;;;;;;;;;;5069697;28;20436;-63
2022/12/24 04:24:20;;;;;;;9.10;2.70;;;;;;;;;;5069772;28;20151;-62
2022/12/24 04:26:50;;;;;;;9.75;3.13;;;;;;;;;;5079834;28;20048;-62
2022/12/24 04:29:20;;;;;;;7.60;2.67;;;;;;;;;;5073028;28;20060;-63
2022/12/24 04:31:49;;;;;;;7.20;2.30;;;;;;;;;;5091961;28;20067;-62
2022/12/24 04:34:19;;;;;;;4.22;1.75;;;;;;;;;;5073693;28;20060;-62
2022/12/24 04:36:48;;;;;;;4.63;1.60;;;;;;;;;;5039212;28;20044;-62
2022/12/24 04:39:18;;;;;;;3.28;1.42;;;;;;;;;;5089931;28;20056;-63
2022/12/24 04:41:49;;;;;;;3.25;1.48;;;;;;;;;;5039225;28;20506;-62
2022/12/24 04:44:18;;;;;;;3.47;1.58;;;;;;;;;;5055876;28;20514;-62
2022/12/24 04:46:48;;;;;;;5.32;1.63;;;;;;;;;;5089615;28;20055;-62
2022/12/24 04:49:18;;;;;;;2.70;1.40;;;;;;;;;;5089790;28;20059;-62
2022/12/24 04:51:47;;;;;;;2.97;1.60;;;;;;;;;;5089500;28;20052;-62
2022/12/24 04:54:17;;;;;;;3.45;1.40;;;;;;;;;;5089602;28;20195;-62
2022/12/24 04:56:46;;;;;;;5.75;1.13;;;;;;;;;;5039309;28;20064;-62
2022/12/24 04:59:16;;;;;;;5.68;1.20;;;;;;;;;;5089574;28;20059;-62
2022/12/24 05:01:46;;;;;;;2.28;1.10;;;;;;;;;;5005972;28;20504;-62
2022/12/24 05:04:15;;;;;;;2.83;1.50;;;;;;;;;;5022426;28;20052;-62
2022/12/24 05:06:45;;;;;;;3.58;1.13;;;;;;;;;;5089349;28;20566;-62
2022/12/24 05:09:15;;;;;;;4.20;1.40;;;;;;;;;;5069076;28;20060;-62
2022/12/24 05:11:44;;;;;;;3.10;1.25;;;;;;;;;;5035795;28;20064;-62
2022/12/24 05:14:14;;;;;;;2.88;1.40;;;;;;;;;;5077697;28;20518;-63
2022/12/24 05:16:43;;;;;;;3.85;1.27;;;;;;;;;;5039322;28;20479;-63
2022/12/24 05:19:13;;;;;;;3.35;1.30;;;;;;;;;;5089469;28;20052;-63
2022/12/24 05:21:43;;;;;;;3.28;1.58;;;;;;;;;;5089233;28;20060;-63
2022/12/24 05:27:01;;;;;;;3.38;1.40;;;;;;;;;;5075074;28;20048;-62
2022/12/24 05:29:31;;;;;;;2.95;1.33;;;;;;;;;;5089437;28;20048;-63
2022/12/24 05:32:01;;;;;;;2.92;1.42;;;;;;;;;;5055474;28;20052;-63
2022/12/24 05:34:30;;;;;;;4.50;1.52;;;;;;;;;;5055571;28;20052;-63
2022/12/24 05:37:00;;;;;;;8.02;2.03;;;;;;;;;;5072296;28;20048;-63
2022/12/24 05:39:31;;;;;;;5.90;1.73;;;;;;;;;;5056400;28;20055;-62
2022/12/24 05:42:00;;;;;;;6.22;2.22;;;;;;;;;;5090524;28;20044;-63
2022/12/24 05:44:30;;;;;;;9.27;2.47;;;;;;;;;;5059430;28;20048;-63
2022/12/24 05:46:59;;;;;;;8.02;2.97;;;;;;;;;;5094286;28;20064;-63
2022/12/24 05:49:30;;;;;;;6.63;2.92;;;;;;;;;;5095243;28;20051;-63
2022/12/24 05:52:00;;;;;;;5.65;2.65;;;;;;;;;;5092869;28;20063;-63
2022/12/24 05:54:29;;;;;;;5.93;2.72;;;;;;;;;;5095095;28;20487;-63
2022/12/24 05:56:59;;;;;;;5.80;2.72;;;;;;;;;;5075932;28;20059;-63
2022/12/24 05:59:29;;;;;;;6.45;2.20;;;;;;;;;;5092700;28;20060;-63
2022/12/24 06:01:58;;;;;;;4.70;1.92;;;;;;;;;;5094904;28;20047;-63
2022/12/24 06:04:28;;;;;;;6.18;2.05;;;;;;;;;;5094797;28;20047;-63
2022/12/24 06:06:58;;;;;;;5.53;2.20;;;;;;;;;;5094483;28;20407;-64
2022/12/24 06:09:27;;;;;;;5.22;2.25;;;;;;;;;;5094566;28;20384;-64
2022/12/24 06:11:57;;;;;;;7.32;2.80;;;;;;;;;;5094546;28;20478;-64
2022/12/24 06:14:26;;;;;;;8.25;2.65;;;;;;;;;;5094568;28;20041;-63
2022/12/24 06:16:56;;;;;;;11.07;2.67;;;;;;;;;;5094715;28;20047;-63
2022/12/24 06:19:26;;;;;;;9.65;2.75;;;;;;;;;;5094521;28;20484;-63
2022/12/24 06:21:55;;;;;;;7.40;2.63;;;;;;;;;;5094504;28;20051;-63
2022/12/24 06:24:25;;;;;;;6.55;2.50;;;;;;;;;;5094197;28;20047;-63
2022/12/24 06:26:54;;;;;;;5.60;2.42;;;;;;;;;;5094589;28;20052;-63
2022/12/24 06:29:24;;;;;;;5.75;2.50;;;;;;;;;;5092152;28;20056;-63
2022/12/24 06:31:54;;;;;;;8.15;2.80;;;;;;;;;;5058967;28;20060;-63
2022/12/24 06:34:25;;;;;;;6.45;2.53;;;;;;;;;;5094108;28;20044;-63
2022/12/24 06:36:55;;;;;;;6.70;2.67;;;;;;;;;;5094303;28;20040;-63
2022/12/24 06:39:25;;;;;;;7.45;2.92;;;;;;;;;;5075176;28;20522;-63
2022/12/24 06:41:54;;;;;;;11.30;2.53;;;;;;;;;;5075207;28;20484;-64
2022/12/24 06:44:25;;;;;;;9.57;2.63;;;;;;;;;;5094136;28;20040;-63
2022/12/24 06:46:54;;;;;;;6.78;2.70;;;;;;;;;;5041581;28;20052;-63
2022/12/24 06:49:25;;;;;;;7.07;2.40;;;;;;;;;;5091781;28;20047;-63
2022/12/24 06:51:55;;;;;;;8.57;3.08;;;;;;;;;;5092681;28;20055;-63
2022/12/24 06:54:24;;;;;;;7.32;3.03;;;;;;;;;;5093405;28;20044;-63
2022/12/24 06:56:54;;;;;;;4.97;2.35;;;;;;;;;;5075105;28;20063;-63
2022/12/24 06:59:25;;;;;;;8.38;2.80;;;;;;;;;;5091675;28;20056;-63
2022/12/24 07:01:55;;;;;;;5.80;2.40;;;;;;;;;;5093547;28;20044;-63
2022/12/24 07:04:25;;;;;;;9.85;2.78;;;;;;;;;;5093635;28;20044;-62
2022/12/24 07:06:55;;;;;;;7.07;2.95;;;;;;;;;;5093529;28;20400;-63
2022/12/24 07:09:26;;;;;;;7.85;2.67;;;;;;;;;;5093514;28;20051;-63
2022/12/24 07:11:55;;;;;;;11.25;2.60;;;;;;;;;;5093499;28;20047;-63
2022/12/24 07:14:25;;;;;;;6.43;2.22;;;;;;;;;;5093674;28;20074;-63
2022/12/24 07:16:56;;;;;;;4.82;2.13;;;;;;;;;;5091035;28;20055;-63
2022/12/24 07:19:27;;;;;;;6.93;2.28;;;;;;;;;;5057878;28;20048;-64
2022/12/24 07:21:56;;;;;;;4.85;2.35;;;;;;;;;;5093436;28;20485;-63
2022/12/24 07:24:26;;;;;;;4.43;2.10;;;;;;;;;;5074566;28;20113;-63
2022/12/24 07:26:56;;;;;;;5.72;2.13;;;;;;;;;;5093171;28;20499;-63
2022/12/24 07:29:25;;;;;;;5.15;2.35;;;;;;;;;;5074812;28;20086;-64
2022/12/24 07:31:55;;;;;;;6.13;2.35;;;;;;;;;;5093000;28;20044;-63
2022/12/24 07:34:26;;;;;;;5.18;2.13;;;;;;;;;;5093047;28;20055;-63
2022/12/24 07:36:56;;;;;;;7.40;1.88;;;;;;;;;;5090769;28;20504;-61
2022/12/24 07:39:26;;;;;;;4.80;2.15;;;;;;;;;;5093230;28;20400;-63
2022/12/24 07:41:56;;;;;;;7.93;2.22;;;;;;;;;;5092933;28;20056;-62
2022/12/24 07:44:26;;;;;;;4.55;1.90;;;;;;;;;;5092865;28;20044;-63
2022/12/24 07:46:56;;;;;;;5.82;1.77;;;;;;;;;;5092859;28;20044;-63
2022/12/24 07:49:25;;;;;;;5.75;1.98;;;;;;;;;;5092773;28;20479;-63
2022/12/24 07:51:55;;;;;;;4.57;1.88;;;;;;;;;;5092645;28;20044;-63
2022/12/24 07:54:24;;;;;;;4.90;2.35;;;;;;;;;;5057346;28;20059;-63
2022/12/24 07:56:54;;;;;;;6.88;1.90;;;;;;;;;;5089853;28;20047;-63
2022/12/24 07:59:23;;;;;;;5.95;1.95;;;;;;;;;;5040388;28;20056;-63
2022/12/24 08:01:53;;;;;;;3.75;1.75;;;;;;;;;;5090151;28;20215;-63
2022/12/24 08:04:23;;;;;;;3.38;1.90;;;;;;;;;;5049228;28;20088;-63
2022/12/24 08:06:53;;;;;;;3.67;2.00;;;;;;;;;;5016214;28;20049;-64
2022/12/24 08:09:23;;;;;;;4.43;1.70;;;;;;;;;;5050040;28;20079;-63
2022/12/24 08:11:52;;;;;;;3.38;1.58;;;;;;;;;;5000135;28;20493;-63
2022/12/24 08:14:22;;;;;;;4.07;1.80;;;;;;;;;;5049899;28;20060;-63
2022/12/24 08:16:52;;;;;;;4.60;1.70;;;;;;;;;;5032789;28;20068;-63
2022/12/24 08:19:22;;;;;;;4.68;1.80;;;;;;;;;;5016698;28;20049;-63
2022/12/24 08:21:52;;;;;;;5.60;1.90;;;;;;;;;;5009672;28;20417;-64
2022/12/24 08:24:22;;;;;;;4.78;1.42;;;;;;;;;;4978068;28;20062;-63
2022/12/24 08:26:51;;;;;;;8.13;1.60;;;;;;;;;;5009506;28;20160;-62
2022/12/24 08:29:21;;;;;;;4.07;1.73;;;;;;;;;;5009866;28;20061;-63
2022/12/24 08:31:51;;;;;;;6.75;2.22;;;;;;;;;;4993815;28;20054;-63
2022/12/24 08:34:20;;;;;;;3.85;1.55;;;;;;;;;;4969405;28;20062;-63
2022/12/24 08:36:50;;;;;;;3.45;1.92;;;;;;;;;;5049511;28;20053;-63
2022/12/24 08:39:20;;;;;;;5.32;1.65;;;;;;;;;;5016101;28;20053;-63
2022/12/24 08:41:50;;;;;;;3.53;1.65;;;;;;;;;;5049532;28;20045;-63
2022/12/24 08:44:20;;;;;;;3.65;1.50;;;;;;;;;;5049198;28;20049;-63
2022/12/24 08:46:50;;;;;;;3.65;1.50;;;;;;;;;;5049570;28;20057;-63
2022/12/24 08:49:19;;;;;;;6.70;1.80;;;;;;;;;;4999940;28;20061;-63
2022/12/24 08:51:51;;;;;;;4.53;1.83;;;;;;;;;;5049210;28;20064;-63
2022/12/24 08:54:22;;;;;;;5.38;1.85;;;;;;;;;;4999911;28;20064;-63
2022/12/24 08:56:52;;;;;;;5.28;1.60;;;;;;;;;;5016268;28;20052;-63
2022/12/24 08:59:22;;;;;;;4.20;1.60;;;;;;;;;;5059319;28;20056;-63
2022/12/24 09:01:51;;;;;;;3.20;1.35;;;;;;;;;;5071732;28;20508;-63
2022/12/24 09:04:21;;;;;;;2.60;1.40;;;;;;;;;;5052742;28;20064;-63
2022/12/24 09:06:51;;;;;;;6.05;2.30;;;;;;;;;;5069633;28;20515;-63
2022/12/24 09:09:21;;;;;;;4.50;1.75;;;;;;;;;;5071550;28;20059;-63
2022/12/24 09:11:50;;;;;;;5.60;1.90;;;;;;;;;;5071776;28;20052;-63
2022/12/24 09:14:20;;;;;;;4.97;1.90;;;;;;;;;;5035979;28;20630;-63
2022/12/24 09:16:50;;;;;;;5.93;1.50;;;;;;;;;;5072468;28;20041;-63
2022/12/24 09:19:20;;;;;;;4.22;1.70;;;;;;;;;;5075241;28;20040;-63
2022/12/24 09:21:49;;;;;;;5.13;1.90;;;;;;;;;;5075460;28;20036;-63
2022/12/24 09:24:19;;;;;;;5.15;2.08;;;;;;;;;;5075318;28;20052;-63
2022/12/24 09:26:49;;;;;;;4.03;1.52;;;;;;;;;;5073814;28;20049;-63
2022/12/24 09:29:25;;;;;;;5.20;1.60;;;;;;;;;;5059562;28;20147;-63
2022/12/24 09:31:55;;;;;;;3.10;1.40;;;;;;;;;;5076052;28;20064;-63
2022/12/24 09:34:26;;;;;;;7.85;2.00;;;;;;;;;;5042629;28;20047;-63
2022/12/24 09:37:01;;;;;;;3.90;1.40;;;;;;;;;;5093089;28;20087;-63
2022/12/24 09:39:31;;;;;;;3.45;1.77;;;;;;;;;;5059337;28;20667;-63
2022/12/24 09:42:28;;;;;;;6.18;2.20;;;;;;;;;;5092870;28;20490;-63
2022/12/24 09:45:06;;;;;;;3.90;1.73;;;;;;;;;;5075847;28;20052;-64
2022/12/24 09:47:41;;;;;;;4.20;1.60;;;;;;;;;;5059353;28;20052;-64
2022/12/24 09:50:49;;;;;;;3.38;1.58;;;;;;;;;;5076371;28;20055;-64
2022/12/24 09:53:40;;;;;;;4.00;1.77;;;;;;;;;;5092702;28;20051;-65
2022/12/24 09:56:23;;;;;;;3.35;1.50;;;;;;;;;;5092604;28;20044;-64
2022/12/24 09:58:59;;;;;;;4.53;1.45;;;;;;;;;;5058961;28;20051;-65
2022/12/24 10:01:32;;;;;;;4.35;1.40;;;;;;;;;;5075414;28;20055;-64
2022/12/24 10:04:16;;;;;;;3.13;1.23;;;;;;;;;;5045189;28;20527;-65
2022/12/24 10:07:03;;;;;;;;;;;;;;;;;;5092929;28;20052;-64
2022/12/24 10:09:33;;;;;;;3.15;1.20;;;;;;;;;;5025311;28;20287;-65
2022/12/24 10:12:17;;;;;;;3.38;1.20;;;;;;;;;;5041745;28;20047;-65
2022/12/24 10:14:57;;;;;;;2.80;1.23;;;;;;;;;;5001164;28;20051;-65
2022/12/24 10:17:49;;;;;;;2.17;0.95;;;;;;;;;;5011993;28;20050;-64
2022/12/24 10:20:36;;;;;;;1.83;0.88;;;;;;;;;;4962858;28;20053;-65
2022/12/24 10:23:29;;;;;;;3.03;0.90;;;;;;;;;;5011922;28;20062;-65
2022/12/24 10:26:28;;;;;;;1.52;0.88;;;;;;;;;;4972513;28;20050;-65
2022/12/24 10:29:02;;;;;;;3.53;0.80;;;;;;;;;;4940281;28;20062;-65
2022/12/24 10:31:36;;;;;;;3.35;0.82;;;;;;;;;;4972612;28;20051;-65
2022/12/24 10:34:16;;;;;;;3.83;0.90;;;;;;;;;;4972752;28;20059;-65
2022/12/24 10:36:46;;;;;;;2.20;0.90;;;;;;;;;;4957096;28;20062;-65
2022/12/24 10:39:21;;;;;;;1.77;0.75;;;;;;;;;;4956714;28;20059;-65
2022/12/24 10:41:56;;;;;;;2.72;1.00;;;;;;;;;;4983770;28;20058;-65
2022/12/24 10:44:30;;;;;;;3.42;0.88;;;;;;;;;;4992222;28;20059;-65
2022/12/24 10:47:00;;;;;;;1.58;1.00;;;;;;;;;;4991954;28;20066;-65
2022/12/24 10:50:11;;;;;;;1.77;0.75;;;;;;;;;;4991976;28;20061;-65
2022/12/24 10:52:43;;;;;;;2.90;1.00;;;;;;;;;;4933190;28;20054;-65
2022/12/24 10:55:16;;;;;;;1.80;0.88;;;;;;;;;;4961895;28;20070;-64
2022/12/24 10:58:03;;;;;;;3.45;0.68;;;;;;;;;;4953141;28;20055;-64
2022/12/24 11:00:34;;;;;;;1.45;1.10;;;;;;;;;;4905728;29;20475;-64
2022/12/24 11:03:20;;;;;;;2.33;0.80;;;;;;;;;;4963572;28;20518;-64
2022/12/24 11:06:20;;;;;;;2.33;1.20;;;;;;;;;;4975108;28;20057;-64
2022/12/24 11:08:49;;;;;;;2.88;1.10;;;;;;;;;;4972010;28;20059;-64
2022/12/24 11:11:20;;;;;;;1.65;0.70;;;;;;;;;;4972175;28;20059;-64
2022/12/24 11:13:50;;;;;;;2.38;0.80;;;;;;;;;;4972018;28;20411;-64
2022/12/24 11:16:34;;;;;;;1.37;1.00;;;;;;;;;;4955658;28;20070;-64
2022/12/24 11:19:14;;;;;;;1.02;0.70;;;;;;;;;;4957541;28;20073;-64
2022/12/24 11:21:44;;;;;;;1.67;0.90;;;;;;;;;;4956261;28;20063;-64
2022/12/24 11:24:19;;;;;;;1.60;0.93;;;;;;;;;;4914884;28;20057;-64
2022/12/24 11:26:50;;;;;;;1.25;0.80;;;;;;;;;;4991284;28;20426;-64
2022/12/24 11:29:26;;;;;;;3.30;1.00;;;;;;;;;;4943059;28;20062;-64
2022/12/24 11:32:18;;;;;;;8.30;0.93;;;;;;;;;;4991257;28;20085;-64
2022/12/24 11:34:48;;;;;;;2.05;0.98;;;;;;;;;;4991244;28;20050;-64
2022/12/24 11:37:22;;;;;;;2.35;0.90;;;;;;;;;;4942636;28;20061;-64
2022/12/24 11:39:59;;;;;;;2.80;1.02;;;;;;;;;;4973939;28;20074;-64
2022/12/24 11:42:36;;;;;;;2.28;0.90;;;;;;;;;;4978469;28;20058;-64
2022/12/24 11:45:24;;;;;;;3.05;0.80;;;;;;;;;;5046016;28;20503;-65
2022/12/24 11:47:56;;;;;;;4.13;1.00;;;;;;;;;;5074564;28;20416;-64
2022/12/24 11:50:31;;;;;;;2.08;1.08;;;;;;;;;;5074180;28;20534;-65
2022/12/24 11:53:10;;;;;;;2.67;0.93;;;;;;;;;;5073775;28;20575;-65
2022/12/24 11:55:52;;;;;;;1.30;0.65;;;;;;;;;;5073670;28;20407;-65
2022/12/24 11:58:35;;;;;;;1.42;0.82;;;;;;;;;;5090385;28;20066;-65
2022/12/24 12:01:16;;;;;;;1.80;0.80;;;;;;;;;;5056717;28;20044;-65
2022/12/24 12:04:12;;;;;;;1.25;0.90;;;;;;;;;;5092421;28;20052;-64
2022/12/24 12:06:49;;;;;;;1.83;1.40;;;;;;;;;;5073706;28;20657;-64
2022/12/24 12:09:28;;;;;;;2.60;1.02;;;;;;;;;;5092611;28;20036;-64
2022/12/24 12:12:23;;;;;;;1.92;0.90;;;;;;;;;;5092499;28;20044;-64
2022/12/24 12:15:21;;;;;;;2.22;1.27;;;;;;;;;;5040096;28;20044;-64
2022/12/24 12:18:10;;;;;;;4.22;1.10;;;;;;;;;;5092325;28;20051;-64
2022/12/24 12:20:45;;;;;;;2.28;1.10;;;;;;;;;;5092342;28;20050;-65
2022/12/24 12:23:17;;;;;;;6.18;3.45;;;;;;;;;;5092077;28;20040;-64
2022/12/24 12:25:47;;;;;;;;;;;;;;;;;;5092840;28;20495;-65
2022/12/24 12:28:43;;;;;;;2.20;1.30;;;;;;;;;;5089797;28;19920;-65
2022/12/24 12:31:19;;;;;;;1.92;0.93;;;;;;;;;;5058936;28;20056;-65
2022/12/24 12:34:12;;;;;;;2.53;0.93;;;;;;;;;;5092352;28;20395;-65
2022/12/24 12:36:50;;;;;;;1.65;0.90;;;;;;;;;;4996499;28;20060;-65
2022/12/24 12:39:20;;;;;;;2.08;1.20;;;;;;;;;;4996576;28;20061;-65
2022/12/24 12:42:11;;;;;;;5.15;1.20;;;;;;;;;;4982236;28;20058;-65
2022/12/24 12:44:49;;;;;;;1.95;0.90;;;;;;;;;;4996394;28;20041;-64
2022/12/24 12:47:40;;;;;;;3.28;0.75;;;;;;;;;;4980742;28;20057;-65
2022/12/24 12:50:31;;;;;;;1.80;0.88;;;;;;;;;;5014856;28;20053;-65
2022/12/24 12:53:03;;;;;;;2.00;1.00;;;;;;;;;;5033599;28;20405;-65
2022/12/24 12:56:00;;;;;;;2.15;0.80;;;;;;;;;;5033544;28;20133;-66
2022/12/24 12:58:39;;;;;;;;;;;;;;;;;;5033787;28;20054;-66
2022/12/24 13:01:30;;;;;;;2.03;0.93;;;;;;;;;;5000788;28;20531;-65
2022/12/24 13:04:16;;;;;;;2.90;0.90;;;;;;;;;;5033421;28;20046;-65
2022/12/24 13:06:45;;;;;;;;;;;;;;;;;;5000549;28;20060;-65
2022/12/24 13:09:17;;;;;;;1.02;0.80;;;;;;;;;;5033436;28;19928;-66
2022/12/24 13:11:53;;;;;;;1.80;0.70;;;;;;;;;;5033479;28;20045;-65
2022/12/24 13:14:55;;;;;;;1.38;0.77;;;;;;;;;;5051828;28;20067;-65
2022/12/24 13:17:46;;;;;;;1.00;0.70;;;;;;;;;;5033115;28;20057;-65
2022/12/24 13:20:28;;;;;;;2.83;0.70;;;;;;;;;;5033181;28;20053;-65
2022/12/24 13:23:21;;;;;;;1.08;0.63;;;;;;;;;;4999859;28;20517;-66
2022/12/24 13:25:57;;;;;;;3.05;0.65;;;;;;;;;;4974271;28;20065;-65
2022/12/24 13:28:32;;;;;;;2.75;0.70;;;;;;;;;;4973975;28;20058;-65
2022/12/24 13:31:01;;;;;;;6.20;0.80;;;;;;;;;;4958705;28;20062;-66
2022/12/24 13:33:37;;;;;;;2.05;0.68;;;;;;;;;;4973904;28;20053;-65
2022/12/24 13:36:09;;;;;;;7.85;0.80;;;;;;;;;;4941786;28;20062;-65
2022/12/24 13:38:58;;;;;;;3.92;0.63;;;;;;;;;;4973782;28;20042;-65
2022/12/24 13:41:35;;;;;;;2.53;0.70;;;;;;;;;;4973816;28;20067;-65
2022/12/24 13:44:18;;;;;;;0.85;0.70;;;;;;;;;;4973730;28;20517;-65
2022/12/24 13:46:59;;;;;;;2.78;0.60;;;;;;;;;;4925492;28;20050;-65
2022/12/24 13:49:49;;;;;;;1.90;0.77;;;;;;;;;;4973764;28;20050;-65
2022/12/24 13:52:25;;;;;;;2.17;0.63;;;;;;;;;;4957775;28;20059;-65
2022/12/24 13:54:58;;;;;;;2.38;0.60;;;;;;;;;;5027337;28;20052;-65
2022/12/24 13:57:28;;;;;;;1.20;0.60;;;;;;;;;;5081899;28;20048;-66
2022/12/24 14:00:08;;;;;;;2.30;1.23;;;;;;;;;;5059405;28;20055;-64
2022/12/24 14:02:59;;;;;;;2.63;0.90;;;;;;;;;;5091086;28;20122;-65
2022/12/24 14:05:39;;;;;;;1.92;0.60;;;;;;;;;;5092399;28;20052;-66
2022/12/24 14:08:27;;;;;;;2.40;0.60;;;;;;;;;;5058850;28;20052;-65
2022/12/24 14:11:18;;;;;;;1.27;0.50;;;;;;;;;;5092226;28;20049;-66
2022/12/24 14:13:50;;;;;;;1.80;0.70;;;;;;;;;;5059181;28;20059;-65
2022/12/24 14:16:30;;;;;;;1.20;0.70;;;;;;;;;;5041805;28;20056;-66
2022/12/24 14:19:22;;;;;;;1.27;0.68;;;;;;;;;;5092154;28;20051;-65
2022/12/24 14:21:58;;;;;;;2.40;0.70;;;;;;;;;;5092033;28;20414;-66
2022/12/24 14:24:36;;;;;;;1.63;0.65;;;;;;;;;;5092036;28;20174;-66
2022/12/24 14:27:12;;;;;;;2.40;0.60;;;;;;;;;;5058226;28;20574;-65
2022/12/24 14:30:01;;;;;;;2.22;1.13;;;;;;;;;;5091981;28;20059;-66
2022/12/24 14:32:49;;;;;;;0.70;0.60;;;;;;;;;;5091877;28;20146;-66
2022/12/24 14:35:28;;;;;;;1.15;0.63;;;;;;;;;;5094176;28;20055;-66
2022/12/24 14:38:04;;;;;;;1.17;0.40;;;;;;;;;;5091752;28;20079;-66
2022/12/24 14:40:41;;;;;;;4.32;0.50;;;;;;;;;;5094151;28;20044;-66
2022/12/24 14:43:25;;;;;;;1.58;0.50;;;;;;;;;;5058675;28;20067;-66
2022/12/24 14:46:32;;;;;;;1.00;0.60;;;;;;;;;;5093900;28;20052;-66
2022/12/24 14:49:17;;;;;;;3.72;0.75;;;;;;;;;;5075440;28;20060;-66
2022/12/24 14:52:17;;;;;;;1.23;0.60;;;;;;;;;;5091787;28;20059;-66
2022/12/24 14:55:45;;;;;;;0.70;0.70;;;;;;;;;;5094038;28;20373;-66
2022/12/24 14:58:29;;;;;;;1.40;0.70;;;;;;;;;;5075404;28;20063;-66
2022/12/24 15:01:20;;;;;;;1.95;0.57;;;;;;;;;;5093493;28;20040;-66
2022/12/24 15:04:20;;;;;;;1.15;0.50;;;;;;;;;;5057582;28;20048;-66
2022/12/24 15:06:52;;;;;;;1.75;0.47;;;;;;;;;;4962831;28;20522;-66
2022/12/24 15:09:28;;;;;;;0.43;0.30;;;;;;;;;;5011354;28;20064;-64
2022/12/24 15:12:02;;;;;;;4.35;1.10;;;;;;;;;;5011566;28;20050;-64
2022/12/24 15:14:39;;;;;;;1.48;0.50;;;;;;;;;;4947452;28;20426;-63
2022/12/24 15:17:11;;;;;;;2.55;0.50;;;;;;;;;;5011320;28;20449;-64
2022/12/24 15:19:43;;;;;;;1.55;0.50;;;;;;;;;;5010973;28;20066;-63
2022/12/24 15:22:31;;;;;;;1.30;0.30;;;;;;;;;;5011100;28;20054;-63
2022/12/24 15:25:02;;;;;;;1.27;0.55;;;;;;;;;;5011018;28;20421;-64
2022/12/24 15:27:37;;;;;;;0.60;0.45;;;;;;;;;;5010707;28;20101;-64
2022/12/24 15:30:36;;;;;;;0.75;0.43;;;;;;;;;;4977976;28;20050;-64
2022/12/24 15:33:09;;;;;;;0.63;0.50;;;;;;;;;;4914231;29;20048;-64
2022/12/24 15:35:50;;;;;;;2.10;0.40;;;;;;;;;;4914455;29;20064;-64
2022/12/24 15:38:32;;;;;;;0.70;0.50;;;;;;;;;;4914091;29;20172;-63
2022/12/24 15:41:14;;;;;;;1.10;0.80;;;;;;;;;;4920382;29;20500;-63